sensor_id;sensor_type;location;lat;lon;timestamp;temperature;humidity
23669;DHT22;12011;47.422;15.018;2024-01-06T00:01:06;0.70;99.90
23669;DHT22;12011;47.422;15.018;2024-01-06T00:03:46;1.30;99.90
23669;DHT22;12011;47.422;15.018;2024-01-06T00:06:16;1.60;99.90
23669;DHT22;12011;47.422;15.018;2024-01-06T00:08:47;1.10;99.90
23669;DHT22;12011;47.422;15.018;2024-01-06T00:11:21;1.40;99.90
23669;DHT22;12011;47.422;15.018;2024-01-06T00:13:55;0.50;99.90
23669;DHT22;12011;47.422;15.018;2024-01-06T00:16:34;0.60;99.90
23669;DHT22;12011;47.422;15.018;2024-01-06T00:19:07;1.10;99.90
23669;DHT22;12011;47.422;15.018;2024-01-06T00:21:40;0.80;99.90
23669;DHT22;12011;47.422;15.018;2024-01-06T00:24:11;1.20;99.90
23669;DHT22;12011;47.422;15.018;2024-01-06T00:26:45;0.90;99.90
23669;DHT22;12011;47.422;15.018;2024-01-06T00:29:15;1.50;99.90
23669;DHT22;12011;47.422;15.018;2024-01-06T00:31:46;0.40;99.90
23669;DHT22;12011;47.422;15.018;2024-01-06T00:34:24;0.40;99.90
23669;DHT22;12011;47.422;15.018;2024-01-06T00:36:56;1.20;99.90
23669;DHT22;12011;47.422;15.018;2024-01-06T00:39:34;0.40;99.90
23669;DHT22;12011;47.422;15.018;2024-01-06T00:42:05;0.40;99.90
23669;DHT22;12011;47.422;15.018;2024-01-06T00:44:40;0.40;99.90
23669;DHT22;12011;47.422;15.018;2024-01-06T00:47:14;1.00;99.90
23669;DHT22;12011;47.422;15.018;2024-01-06T00:49:53;0.50;99.90
23669;DHT22;12011;47.422;15.018;2024-01-06T00:52:24;0.50;99.90
23669;DHT22;12011;47.422;15.018;2024-01-06T00:54:55;0.50;99.90
23669;DHT22;12011;47.422;15.018;2024-01-06T00:57:29;1.20;99.90
23669;DHT22;12011;47.422;15.018;2024-01-06T01:00:02;1.20;99.90
23669;DHT22;12011;47.422;15.018;2024-01-06T01:02:34;0.50;99.90
23669;DHT22;12011;47.422;15.018;2024-01-06T01:05:11;0.50;99.90
23669;DHT22;12011;47.422;15.018;2024-01-06T01:07:45;1.30;99.90
23669;DHT22;12011;47.422;15.018;2024-01-06T01:10:15;0.60;99.90
23669;DHT22;12011;47.422;15.018;2024-01-06T01:12:46;0.60;99.90
23669;DHT22;12011;47.422;15.018;2024-01-06T01:15:24;0.60;99.90
23669;DHT22;12011;47.422;15.018;2024-01-06T01:17:53;0.90;99.90
23669;DHT22;12011;47.422;15.018;2024-01-06T01:20:29;0.60;99.90
23669;DHT22;12011;47.422;15.018;2024-01-06T01:23:02;0.90;99.90
23669;DHT22;12011;47.422;15.018;2024-01-06T01:25:34;0.60;99.90
23669;DHT22;12011;47.422;15.018;2024-01-06T01:28:06;0.60;99.90
23669;DHT22;12011;47.422;15.018;2024-01-06T01:30:51;1.60;99.90
23669;DHT22;12011;47.422;15.018;2024-01-06T01:33:34;1.00;99.90
23669;DHT22;12011;47.422;15.018;2024-01-06T01:36:10;1.90;99.90
23669;DHT22;12011;47.422;15.018;2024-01-06T01:38:40;1.00;99.90
23669;DHT22;12011;47.422;15.018;2024-01-06T01:41:10;0.70;99.90
23669;DHT22;12011;47.422;15.018;2024-01-06T01:43:40;0.70;99.90
23669;DHT22;12011;47.422;15.018;2024-01-06T01:46:12;1.60;99.90
23669;DHT22;12011;47.422;15.018;2024-01-06T01:48:47;1.50;99.90
23669;DHT22;12011;47.422;15.018;2024-01-06T01:51:21;1.80;99.90
23669;DHT22;12011;47.422;15.018;2024-01-06T01:53:54;1.70;99.90
23669;DHT22;12011;47.422;15.018;2024-01-06T01:56:39;1.60;99.90
23669;DHT22;12011;47.422;15.018;2024-01-06T01:59:18;0.80;99.90
23669;DHT22;12011;47.422;15.018;2024-01-06T02:01:48;0.80;99.90
23669;DHT22;12011;47.422;15.018;2024-01-06T02:04:22;0.90;99.90
23669;DHT22;12011;47.422;15.018;2024-01-06T02:06:57;0.80;99.90
23669;DHT22;12011;47.422;15.018;2024-01-06T02:09:35;1.70;99.90
23669;DHT22;12011;47.422;15.018;2024-01-06T02:14:55;0.70;99.90
23669;DHT22;12011;47.422;15.018;2024-01-06T02:17:25;1.00;99.90
23669;DHT22;12011;47.422;15.018;2024-01-06T02:19:56;1.90;99.90
23669;DHT22;12011;47.422;15.018;2024-01-06T02:22:34;0.90;99.90
23669;DHT22;12011;47.422;15.018;2024-01-06T02:25:12;0.70;99.90
23669;DHT22;12011;47.422;15.018;2024-01-06T02:27:45;0.70;99.90
23669;DHT22;12011;47.422;15.018;2024-01-06T02:30:19;1.50;99.90
23669;DHT22;12011;47.422;15.018;2024-01-06T02:32:59;0.70;99.90
23669;DHT22;12011;47.422;15.018;2024-01-06T02:35:35;1.70;99.90
23669;DHT22;12011;47.422;15.018;2024-01-06T02:38:16;1.50;99.90
23669;DHT22;12011;47.422;15.018;2024-01-06T02:40:46;0.70;99.90
23669;DHT22;12011;47.422;15.018;2024-01-06T02:43:25;1.60;99.90
23669;DHT22;12011;47.422;15.018;2024-01-06T02:46:06;0.80;99.90
23669;DHT22;12011;47.422;15.018;2024-01-06T02:48:43;1.50;99.90
23669;DHT22;12011;47.422;15.018;2024-01-06T02:51:15;0.90;99.90
23669;DHT22;12011;47.422;15.018;2024-01-06T02:53:55;0.70;99.90
23669;DHT22;12011;47.422;15.018;2024-01-06T02:56:26;0.80;99.90
23669;DHT22;12011;47.422;15.018;2024-01-06T02:58:55;0.70;99.90
23669;DHT22;12011;47.422;15.018;2024-01-06T03:01:32;1.30;99.90
23669;DHT22;12011;47.422;15.018;2024-01-06T03:04:02;1.70;99.90
23669;DHT22;12011;47.422;15.018;2024-01-06T03:06:35;0.70;99.90
23669;DHT22;12011;47.422;15.018;2024-01-06T03:09:10;0.70;99.90
23669;DHT22;12011;47.422;15.018;2024-01-06T03:11:45;0.80;99.90
23669;DHT22;12011;47.422;15.018;2024-01-06T03:14:22;0.70;99.90
23669;DHT22;12011;47.422;15.018;2024-01-06T03:16:53;0.70;99.90
23669;DHT22;12011;47.422;15.018;2024-01-06T03:19:24;0.70;99.90
23669;DHT22;12011;47.422;15.018;2024-01-06T03:21:58;1.60;99.90
23669;DHT22;12011;47.422;15.018;2024-01-06T03:24:30;1.20;99.90
23669;DHT22;12011;47.422;15.018;2024-01-06T03:27:16;1.10;99.90
23669;DHT22;12011;47.422;15.018;2024-01-06T03:29:52;0.50;99.90
23669;DHT22;12011;47.422;15.018;2024-01-06T03:32:22;0.50;99.90
23669;DHT22;12011;47.422;15.018;2024-01-06T03:34:56;1.50;99.90
23669;DHT22;12011;47.422;15.018;2024-01-06T03:37:33;1.40;99.90
23669;DHT22;12011;47.422;15.018;2024-01-06T03:40:12;0.70;99.90
23669;DHT22;12011;47.422;15.018;2024-01-06T03:42:47;0.70;99.90
23669;DHT22;12011;47.422;15.018;2024-01-06T03:45:21;0.80;99.90
23669;DHT22;12011;47.422;15.018;2024-01-06T03:47:50;1.40;99.90
23669;DHT22;12011;47.422;15.018;2024-01-06T03:50:21;0.80;99.90
23669;DHT22;12011;47.422;15.018;2024-01-06T03:52:54;1.40;99.90
23669;DHT22;12011;47.422;15.018;2024-01-06T03:55:28;0.80;99.90
23669;DHT22;12011;47.422;15.018;2024-01-06T03:58:04;1.70;99.90
23669;DHT22;12011;47.422;15.018;2024-01-06T04:00:37;0.90;99.90
23669;DHT22;12011;47.422;15.018;2024-01-06T04:03:07;0.90;99.90
23669;DHT22;12011;47.422;15.018;2024-01-06T04:05:43;1.90;99.90
23669;DHT22;12011;47.422;15.018;2024-01-06T04:08:15;1.00;99.90
23669;DHT22;12011;47.422;15.018;2024-01-06T04:10:51;1.50;99.90
23669;DHT22;12011;47.422;15.018;2024-01-06T04:13:23;1.00;99.90
23669;DHT22;12011;47.422;15.018;2024-01-06T04:15:54;1.80;99.90
23669;DHT22;12011;47.422;15.018;2024-01-06T04:18:27;1.80;99.90
23669;DHT22;12011;47.422;15.018;2024-01-06T04:20:57;2.10;99.90
23669;DHT22;12011;47.422;15.018;2024-01-06T04:23:33;1.80;99.90
23669;DHT22;12011;47.422;15.018;2024-01-06T04:26:10;1.70;99.90
23669;DHT22;12011;47.422;15.018;2024-01-06T04:28:43;1.10;99.90
23669;DHT22;12011;47.422;15.018;2024-01-06T04:31:14;1.10;99.90
23669;DHT22;12011;47.422;15.018;2024-01-06T04:33:51;1.10;99.90
23669;DHT22;12011;47.422;15.018;2024-01-06T04:36:26;1.10;99.90
23669;DHT22;12011;47.422;15.018;2024-01-06T04:38:58;1.00;99.90
23669;DHT22;12011;47.422;15.018;2024-01-06T04:41:29;1.00;99.90
23669;DHT22;12011;47.422;15.018;2024-01-06T04:44:02;1.70;99.90
23669;DHT22;12011;47.422;15.018;2024-01-06T04:46:33;1.60;99.90
23669;DHT22;12011;47.422;15.018;2024-01-06T04:49:04;1.10;99.90
23669;DHT22;12011;47.422;15.018;2024-01-06T04:51:35;1.10;99.90
23669;DHT22;12011;47.422;15.018;2024-01-06T04:54:12;1.50;99.90
23669;DHT22;12011;47.422;15.018;2024-01-06T04:56:50;1.10;99.90
23669;DHT22;12011;47.422;15.018;2024-01-06T04:59:25;1.10;99.90
23669;DHT22;12011;47.422;15.018;2024-01-06T05:01:55;1.10;99.90
23669;DHT22;12011;47.422;15.018;2024-01-06T05:04:27;1.90;99.90
23669;DHT22;12011;47.422;15.018;2024-01-06T05:07:00;1.80;99.90
23669;DHT22;12011;47.422;15.018;2024-01-06T05:09:39;1.80;99.90
23669;DHT22;12011;47.422;15.018;2024-01-06T05:12:12;1.10;99.90
23669;DHT22;12011;47.422;15.018;2024-01-06T05:14:42;1.20;99.90
23669;DHT22;12011;47.422;15.018;2024-01-06T05:17:14;1.50;99.90
23669;DHT22;12011;47.422;15.018;2024-01-06T05:19:44;1.30;99.90
23669;DHT22;12011;47.422;15.018;2024-01-06T05:22:16;1.60;99.90
23669;DHT22;12011;47.422;15.018;2024-01-06T05:24:47;2.10;99.90
23669;DHT22;12011;47.422;15.018;2024-01-06T05:27:25;2.10;99.90
23669;DHT22;12011;47.422;15.018;2024-01-06T05:30:00;1.30;99.90
23669;DHT22;12011;47.422;15.018;2024-01-06T05:32:33;2.10;99.90
23669;DHT22;12011;47.422;15.018;2024-01-06T05:35:07;1.70;99.90
23669;DHT22;12011;47.422;15.018;2024-01-06T05:37:40;1.30;99.90
23669;DHT22;12011;47.422;15.018;2024-01-06T05:40:15;2.10;99.90
23669;DHT22;12011;47.422;15.018;2024-01-06T05:42:50;2.40;99.90
23669;DHT22;12011;47.422;15.018;2024-01-06T05:45:21;1.90;99.90
23669;DHT22;12011;47.422;15.018;2024-01-06T05:47:59;1.50;99.90
23669;DHT22;12011;47.422;15.018;2024-01-06T05:50:31;2.00;99.90
23669;DHT22;12011;47.422;15.018;2024-01-06T05:53:01;2.20;99.90
23669;DHT22;12011;47.422;15.018;2024-01-06T05:55:38;1.70;99.90
23669;DHT22;12011;47.422;15.018;2024-01-06T05:58:13;1.30;99.90
23669;DHT22;12011;47.422;15.018;2024-01-06T06:00:47;1.30;99.90
23669;DHT22;12011;47.422;15.018;2024-01-06T06:03:19;1.20;99.90
23669;DHT22;12011;47.422;15.018;2024-01-06T06:05:50;1.30;99.90
23669;DHT22;12011;47.422;15.018;2024-01-06T06:08:20;1.30;99.90
23669;DHT22;12011;47.422;15.018;2024-01-06T06:10:50;2.10;99.90
23669;DHT22;12011;47.422;15.018;2024-01-06T06:13:34;1.60;99.90
23669;DHT22;12011;47.422;15.018;2024-01-06T06:16:07;1.80;99.90
23669;DHT22;12011;47.422;15.018;2024-01-06T06:18:38;2.20;99.90
23669;DHT22;12011;47.422;15.018;2024-01-06T06:21:08;1.70;99.90
23669;DHT22;12011;47.422;15.018;2024-01-06T06:23:37;1.50;99.90
23669;DHT22;12011;47.422;15.018;2024-01-06T06:26:07;1.70;99.90
23669;DHT22;12011;47.422;15.018;2024-01-06T06:28:40;2.00;99.90
23669;DHT22;12011;47.422;15.018;2024-01-06T06:31:10;1.30;99.90
23669;DHT22;12011;47.422;15.018;2024-01-06T06:33:39;1.90;99.90
23669;DHT22;12011;47.422;15.018;2024-01-06T06:36:09;1.30;99.90
23669;DHT22;12011;47.422;15.018;2024-01-06T06:38:39;2.10;99.90
23669;DHT22;12011;47.422;15.018;2024-01-06T06:41:08;1.40;99.90
23669;DHT22;12011;47.422;15.018;2024-01-06T06:43:41;1.20;99.90
23669;DHT22;12011;47.422;15.018;2024-01-06T06:46:10;2.10;99.90
23669;DHT22;12011;47.422;15.018;2024-01-06T06:48:40;2.20;99.90
23669;DHT22;12011;47.422;15.018;2024-01-06T06:51:09;1.40;99.90
23669;DHT22;12011;47.422;15.018;2024-01-06T06:53:39;2.00;99.90
23669;DHT22;12011;47.422;15.018;2024-01-06T06:56:09;2.40;99.90
23669;DHT22;12011;47.422;15.018;2024-01-06T06:58:43;1.50;99.90
23669;DHT22;12011;47.422;15.018;2024-01-06T07:01:13;2.00;99.90
23669;DHT22;12011;47.422;15.018;2024-01-06T07:03:43;2.30;99.90
23669;DHT22;12011;47.422;15.018;2024-01-06T07:06:32;2.40;99.90
23669;DHT22;12011;47.422;15.018;2024-01-06T07:09:20;1.30;99.90
23669;DHT22;12011;47.422;15.018;2024-01-06T07:12:05;1.30;99.90
23669;DHT22;12011;47.422;15.018;2024-01-06T07:14:38;1.30;99.90
23669;DHT22;12011;47.422;15.018;2024-01-06T07:17:07;1.40;99.90
23669;DHT22;12011;47.422;15.018;2024-01-06T07:19:38;1.40;99.90
23669;DHT22;12011;47.422;15.018;2024-01-06T07:22:08;2.40;99.90
23669;DHT22;12011;47.422;15.018;2024-01-06T07:24:37;2.40;99.90
23669;DHT22;12011;47.422;15.018;2024-01-06T07:27:07;2.10;99.90
23669;DHT22;12011;47.422;15.018;2024-01-06T07:29:40;1.40;99.90
23669;DHT22;12011;47.422;15.018;2024-01-06T07:32:09;1.70;99.90
23669;DHT22;12011;47.422;15.018;2024-01-06T07:34:39;2.40;99.90
23669;DHT22;12011;47.422;15.018;2024-01-06T07:37:09;1.60;99.90
23669;DHT22;12011;47.422;15.018;2024-01-06T07:39:38;2.30;99.90
23669;DHT22;12011;47.422;15.018;2024-01-06T07:42:08;2.10;99.90
23669;DHT22;12011;47.422;15.018;2024-01-06T07:44:40;1.50;99.90
23669;DHT22;12011;47.422;15.018;2024-01-06T07:47:10;1.60;99.90
23669;DHT22;12011;47.422;15.018;2024-01-06T07:49:40;2.30;99.90
23669;DHT22;12011;47.422;15.018;2024-01-06T07:52:10;1.90;99.90
23669;DHT22;12011;47.422;15.018;2024-01-06T07:54:39;2.40;99.90
23669;DHT22;12011;47.422;15.018;2024-01-06T07:57:09;2.20;99.90
23669;DHT22;12011;47.422;15.018;2024-01-06T07:59:42;1.20;99.90
23669;DHT22;12011;47.422;15.018;2024-01-06T08:02:11;2.40;99.90
23669;DHT22;12011;47.422;15.018;2024-01-06T08:04:40;2.60;99.90
23669;DHT22;12011;47.422;15.018;2024-01-06T08:07:11;2.10;99.90
23669;DHT22;12011;47.422;15.018;2024-01-06T08:09:40;1.60;99.90
23669;DHT22;12011;47.422;15.018;2024-01-06T08:12:09;2.60;99.90
23669;DHT22;12011;47.422;15.018;2024-01-06T08:14:42;1.60;99.90
23669;DHT22;12011;47.422;15.018;2024-01-06T08:17:11;1.60;99.90
23669;DHT22;12011;47.422;15.018;2024-01-06T08:20:00;2.30;99.90
23669;DHT22;12011;47.422;15.018;2024-01-06T08:22:29;1.70;99.90
23669;DHT22;12011;47.422;15.018;2024-01-06T08:24:59;2.50;99.90
23669;DHT22;12011;47.422;15.018;2024-01-06T08:27:28;2.40;99.90
23669;DHT22;12011;47.422;15.018;2024-01-06T08:30:01;1.50;99.90
23669;DHT22;12011;47.422;15.018;2024-01-06T08:32:30;1.50;99.90
23669;DHT22;12011;47.422;15.018;2024-01-06T08:35:00;2.50;99.90
23669;DHT22;12011;47.422;15.018;2024-01-06T08:37:30;1.60;99.90
23669;DHT22;12011;47.422;15.018;2024-01-06T08:39:59;2.20;99.90
23669;DHT22;12011;47.422;15.018;2024-01-06T08:42:30;2.20;99.90
23669;DHT22;12011;47.422;15.018;2024-01-06T08:45:02;1.80;99.90
23669;DHT22;12011;47.422;15.018;2024-01-06T08:47:31;1.80;99.90
23669;DHT22;12011;47.422;15.018;2024-01-06T08:50:01;1.80;99.90
23669;DHT22;12011;47.422;15.018;2024-01-06T08:52:30;2.00;99.90
23669;DHT22;12011;47.422;15.018;2024-01-06T08:55:00;2.80;99.90
23669;DHT22;12011;47.422;15.018;2024-01-06T08:57:29;2.90;99.90
23669;DHT22;12011;47.422;15.018;2024-01-06T09:00:01;2.10;99.90
23669;DHT22;12011;47.422;15.018;2024-01-06T09:02:31;2.80;99.90
23669;DHT22;12011;47.422;15.018;2024-01-06T09:05:01;2.20;99.90
23669;DHT22;12011;47.422;15.018;2024-01-06T09:07:30;2.90;99.90
23669;DHT22;12011;47.422;15.018;2024-01-06T09:10:00;2.30;99.90
23669;DHT22;12011;47.422;15.018;2024-01-06T09:12:29;2.90;99.90
23669;DHT22;12011;47.422;15.018;2024-01-06T09:15:01;2.90;99.90
23669;DHT22;12011;47.422;15.018;2024-01-06T09:17:31;2.40;99.90
23669;DHT22;12011;47.422;15.018;2024-01-06T09:20:00;2.70;99.90
23669;DHT22;12011;47.422;15.018;2024-01-06T09:23:08;2.60;99.90
23669;DHT22;12011;47.422;15.018;2024-01-06T09:25:43;2.90;99.90
23669;DHT22;12011;47.422;15.018;2024-01-06T09:29:01;2.60;99.90
23669;DHT22;12011;47.422;15.018;2024-01-06T09:31:38;2.60;99.90
23669;DHT22;12011;47.422;15.018;2024-01-06T09:34:26;2.60;99.90
23669;DHT22;12011;47.422;15.018;2024-01-06T09:37:14;3.00;99.90
23669;DHT22;12011;47.422;15.018;2024-01-06T09:39:44;2.60;99.90
23669;DHT22;12011;47.422;15.018;2024-01-06T09:42:13;2.70;99.90
23669;DHT22;12011;47.422;15.018;2024-01-06T09:44:44;2.60;99.90
23669;DHT22;12011;47.422;15.018;2024-01-06T09:47:18;3.60;99.90
23669;DHT22;12011;47.422;15.018;2024-01-06T09:49:49;2.80;99.90
23669;DHT22;12011;47.422;15.018;2024-01-06T09:52:22;3.20;99.90
23669;DHT22;12011;47.422;15.018;2024-01-06T09:54:53;3.10;99.90
23669;DHT22;12011;47.422;15.018;2024-01-06T09:57:23;2.70;99.90
23669;DHT22;12011;47.422;15.018;2024-01-06T09:59:53;3.30;99.90
23669;DHT22;12011;47.422;15.018;2024-01-06T10:02:25;3.00;99.90
23669;DHT22;12011;47.422;15.018;2024-01-06T10:04:57;2.70;99.90
23669;DHT22;12011;47.422;15.018;2024-01-06T10:07:27;3.40;99.90
23669;DHT22;12011;47.422;15.018;2024-01-06T10:09:57;3.40;99.90
23669;DHT22;12011;47.422;15.018;2024-01-06T10:12:26;3.20;99.90
23669;DHT22;12011;47.422;15.018;2024-01-06T10:14:57;3.00;99.90
23669;DHT22;12011;47.422;15.018;2024-01-06T10:17:29;2.90;99.90
23669;DHT22;12011;47.422;15.018;2024-01-06T10:19:59;3.50;99.90
23669;DHT22;12011;47.422;15.018;2024-01-06T10:22:29;2.90;99.90
23669;DHT22;12011;47.422;15.018;2024-01-06T10:25:00;3.60;99.90
23669;DHT22;12011;47.422;15.018;2024-01-06T10:27:29;3.10;99.90
23669;DHT22;12011;47.422;15.018;2024-01-06T10:29:59;3.40;99.90
23669;DHT22;12011;47.422;15.018;2024-01-06T10:32:35;3.00;99.90
23669;DHT22;12011;47.422;15.018;2024-01-06T10:35:06;3.10;99.90
23669;DHT22;12011;47.422;15.018;2024-01-06T10:37:37;3.10;99.90
23669;DHT22;12011;47.422;15.018;2024-01-06T10:40:09;3.10;99.90
23669;DHT22;12011;47.422;15.018;2024-01-06T10:42:41;3.20;99.90
23669;DHT22;12011;47.422;15.018;2024-01-06T10:45:12;3.20;99.90
23669;DHT22;12011;47.422;15.018;2024-01-06T10:47:47;3.20;99.90
23669;DHT22;12011;47.422;15.018;2024-01-06T10:50:18;3.20;99.90
23669;DHT22;12011;47.422;15.018;2024-01-06T10:52:49;3.20;99.90
23669;DHT22;12011;47.422;15.018;2024-01-06T10:55:21;3.20;99.90
23669;DHT22;12011;47.422;15.018;2024-01-06T10:57:51;3.20;99.90
23669;DHT22;12011;47.422;15.018;2024-01-06T11:00:22;3.20;99.90
23669;DHT22;12011;47.422;15.018;2024-01-06T11:02:56;3.20;99.90
23669;DHT22;12011;47.422;15.018;2024-01-06T11:05:28;3.20;99.90
23669;DHT22;12011;47.422;15.018;2024-01-06T11:07:59;3.30;99.90
23669;DHT22;12011;47.422;15.018;2024-01-06T11:10:30;3.30;99.90
23669;DHT22;12011;47.422;15.018;2024-01-06T11:13:10;3.40;99.90
23669;DHT22;12011;47.422;15.018;2024-01-06T11:15:44;3.40;99.90
23669;DHT22;12011;47.422;15.018;2024-01-06T11:18:39;3.40;99.90
23669;DHT22;12011;47.422;15.018;2024-01-06T11:21:17;3.50;99.90
23669;DHT22;12011;47.422;15.018;2024-01-06T11:24:13;3.50;99.90
23669;DHT22;12011;47.422;15.018;2024-01-06T11:26:50;3.60;99.90
23669;DHT22;12011;47.422;15.018;2024-01-06T11:29:20;3.60;99.90
23669;DHT22;12011;47.422;15.018;2024-01-06T11:32:17;3.60;99.90
23669;DHT22;12011;47.422;15.018;2024-01-06T11:34:54;3.70;99.90
23669;DHT22;12011;47.422;15.018;2024-01-06T11:37:35;3.70;99.90
23669;DHT22;12011;47.422;15.018;2024-01-06T11:40:36;3.70;99.90
23669;DHT22;12011;47.422;15.018;2024-01-06T11:43:34;3.60;99.90
23669;DHT22;12011;47.422;15.018;2024-01-06T11:46:58;3.60;99.90
23669;DHT22;12011;47.422;15.018;2024-01-06T11:50:14;3.60;99.90
23669;DHT22;12011;47.422;15.018;2024-01-06T11:52:49;3.60;99.90
23669;DHT22;12011;47.422;15.018;2024-01-06T11:55:32;3.60;99.90
23669;DHT22;12011;47.422;15.018;2024-01-06T11:58:16;3.50;99.90
23669;DHT22;12011;47.422;15.018;2024-01-06T12:00:55;3.60;99.90
23669;DHT22;12011;47.422;15.018;2024-01-06T12:03:25;3.50;99.90
23669;DHT22;12011;47.422;15.018;2024-01-06T12:06:03;3.50;99.90
23669;DHT22;12011;47.422;15.018;2024-01-06T12:08:33;3.60;99.90
23669;DHT22;12011;47.422;15.018;2024-01-06T12:11:03;3.60;99.90
23669;DHT22;12011;47.422;15.018;2024-01-06T12:13:35;3.60;99.90
23669;DHT22;12011;47.422;15.018;2024-01-06T12:16:05;3.50;99.90
23669;DHT22;12011;47.422;15.018;2024-01-06T12:18:35;3.50;99.90
23669;DHT22;12011;47.422;15.018;2024-01-06T12:21:07;3.50;99.90
23669;DHT22;12011;47.422;15.018;2024-01-06T12:23:37;3.40;99.90
23669;DHT22;12011;47.422;15.018;2024-01-06T12:26:07;3.40;99.90
23669;DHT22;12011;47.422;15.018;2024-01-06T12:28:37;3.40;99.90
23669;DHT22;12011;47.422;15.018;2024-01-06T12:31:09;3.40;99.90
23669;DHT22;12011;47.422;15.018;2024-01-06T12:33:39;3.30;99.90
23669;DHT22;12011;47.422;15.018;2024-01-06T12:36:11;3.30;99.90
23669;DHT22;12011;47.422;15.018;2024-01-06T12:38:42;3.30;99.90
23669;DHT22;12011;47.422;15.018;2024-01-06T12:41:12;3.40;99.90
23669;DHT22;12011;47.422;15.018;2024-01-06T12:43:42;3.40;99.90
23669;DHT22;12011;47.422;15.018;2024-01-06T12:46:11;3.40;99.90
23669;DHT22;12011;47.422;15.018;2024-01-06T12:48:41;3.40;99.90
23669;DHT22;12011;47.422;15.018;2024-01-06T12:51:13;3.40;99.90
23669;DHT22;12011;47.422;15.018;2024-01-06T12:53:43;3.40;99.90
23669;DHT22;12011;47.422;15.018;2024-01-06T12:56:12;3.40;99.90
23669;DHT22;12011;47.422;15.018;2024-01-06T12:58:42;3.50;99.90
23669;DHT22;12011;47.422;15.018;2024-01-06T13:01:12;3.50;99.90
23669;DHT22;12011;47.422;15.018;2024-01-06T13:03:42;3.50;99.90
23669;DHT22;12011;47.422;15.018;2024-01-06T13:06:14;3.50;99.90
23669;DHT22;12011;47.422;15.018;2024-01-06T13:08:45;3.50;99.90
23669;DHT22;12011;47.422;15.018;2024-01-06T13:11:15;3.40;99.90
23669;DHT22;12011;47.422;15.018;2024-01-06T13:13:46;3.40;99.90
23669;DHT22;12011;47.422;15.018;2024-01-06T13:16:15;3.40;99.90
23669;DHT22;12011;47.422;15.018;2024-01-06T13:18:45;3.40;99.90
23669;DHT22;12011;47.422;15.018;2024-01-06T13:21:14;3.40;99.90
23669;DHT22;12011;47.422;15.018;2024-01-06T13:23:44;3.40;99.90
23669;DHT22;12011;47.422;15.018;2024-01-06T13:26:13;3.30;99.90
23669;DHT22;12011;47.422;15.018;2024-01-06T13:28:43;3.30;99.90
23669;DHT22;12011;47.422;15.018;2024-01-06T13:31:12;3.30;99.90
23669;DHT22;12011;47.422;15.018;2024-01-06T13:33:42;3.30;99.90
23669;DHT22;12011;47.422;15.018;2024-01-06T13:36:14;3.30;99.90
23669;DHT22;12011;47.422;15.018;2024-01-06T13:38:44;3.30;99.90
23669;DHT22;12011;47.422;15.018;2024-01-06T13:41:15;3.30;99.90
23669;DHT22;12011;47.422;15.018;2024-01-06T13:43:45;3.30;99.90
23669;DHT22;12011;47.422;15.018;2024-01-06T13:46:15;3.30;99.90
23669;DHT22;12011;47.422;15.018;2024-01-06T13:48:44;3.30;99.90
23669;DHT22;12011;47.422;15.018;2024-01-06T13:51:16;3.20;99.90
23669;DHT22;12011;47.422;15.018;2024-01-06T13:53:46;3.20;99.90
23669;DHT22;12011;47.422;15.018;2024-01-06T13:56:15;3.20;99.90
23669;DHT22;12011;47.422;15.018;2024-01-06T13:58:45;3.20;99.90
23669;DHT22;12011;47.422;15.018;2024-01-06T14:01:15;3.10;99.90
23669;DHT22;12011;47.422;15.018;2024-01-06T14:03:44;3.10;99.90
23669;DHT22;12011;47.422;15.018;2024-01-06T14:06:16;3.10;99.90
23669;DHT22;12011;47.422;15.018;2024-01-06T14:08:46;3.10;99.90
23669;DHT22;12011;47.422;15.018;2024-01-06T14:11:16;3.00;99.90
23669;DHT22;12011;47.422;15.018;2024-01-06T14:13:46;3.10;99.90
23669;DHT22;12011;47.422;15.018;2024-01-06T14:16:17;3.00;99.90
23669;DHT22;12011;47.422;15.018;2024-01-06T14:18:47;3.10;99.90
23669;DHT22;12011;47.422;15.018;2024-01-06T14:21:19;3.00;99.90
23669;DHT22;12011;47.422;15.018;2024-01-06T14:23:49;3.00;99.90
23669;DHT22;12011;47.422;15.018;2024-01-06T14:26:18;2.90;99.90
23669;DHT22;12011;47.422;15.018;2024-01-06T14:28:49;2.90;99.90
23669;DHT22;12011;47.422;15.018;2024-01-06T14:31:19;2.90;99.90
23669;DHT22;12011;47.422;15.018;2024-01-06T14:33:48;2.90;99.90
23669;DHT22;12011;47.422;15.018;2024-01-06T14:36:20;2.90;99.90
23669;DHT22;12011;47.422;15.018;2024-01-06T14:38:50;2.80;99.90
23669;DHT22;12011;47.422;15.018;2024-01-06T14:41:20;2.80;99.90
23669;DHT22;12011;47.422;15.018;2024-01-06T14:43:50;2.80;99.90
23669;DHT22;12011;47.422;15.018;2024-01-06T14:46:20;2.70;99.90
23669;DHT22;12011;47.422;15.018;2024-01-06T14:48:49;2.70;99.90
23669;DHT22;12011;47.422;15.018;2024-01-06T14:51:21;2.60;99.90
23669;DHT22;12011;47.422;15.018;2024-01-06T14:53:50;2.70;99.90
23669;DHT22;12011;47.422;15.018;2024-01-06T14:56:21;2.60;99.90
23669;DHT22;12011;47.422;15.018;2024-01-06T14:58:51;2.60;99.90
23669;DHT22;12011;47.422;15.018;2024-01-06T15:01:20;2.60;99.90
23669;DHT22;12011;47.422;15.018;2024-01-06T15:03:50;2.60;99.90
23669;DHT22;12011;47.422;15.018;2024-01-06T15:06:22;2.60;99.90
23669;DHT22;12011;47.422;15.018;2024-01-06T15:08:51;2.60;99.90
23669;DHT22;12011;47.422;15.018;2024-01-06T15:11:21;2.60;99.90
23669;DHT22;12011;47.422;15.018;2024-01-06T15:13:52;2.50;99.90
23669;DHT22;12011;47.422;15.018;2024-01-06T15:16:21;2.50;99.90
23669;DHT22;12011;47.422;15.018;2024-01-06T15:18:51;2.50;99.90
23669;DHT22;12011;47.422;15.018;2024-01-06T15:21:24;2.40;99.90
23669;DHT22;12011;47.422;15.018;2024-01-06T15:23:59;2.40;99.90
23669;DHT22;12011;47.422;15.018;2024-01-06T15:26:28;2.40;99.90
23669;DHT22;12011;47.422;15.018;2024-01-06T15:28:58;2.40;99.90
23669;DHT22;12011;47.422;15.018;2024-01-06T15:31:29;2.30;99.90
23669;DHT22;12011;47.422;15.018;2024-01-06T15:33:59;2.30;99.90
23669;DHT22;12011;47.422;15.018;2024-01-06T15:36:31;2.30;99.90
23669;DHT22;12011;47.422;15.018;2024-01-06T15:39:01;2.20;99.90
23669;DHT22;12011;47.422;15.018;2024-01-06T15:41:31;2.30;99.90
23669;DHT22;12011;47.422;15.018;2024-01-06T15:44:00;2.30;99.90
23669;DHT22;12011;47.422;15.018;2024-01-06T15:46:30;2.30;99.90
23669;DHT22;12011;47.422;15.018;2024-01-06T15:49:00;2.20;99.90
23669;DHT22;12011;47.422;15.018;2024-01-06T15:51:32;2.20;99.90
23669;DHT22;12011;47.422;15.018;2024-01-06T15:54:01;2.30;99.90
23669;DHT22;12011;47.422;15.018;2024-01-06T15:56:31;2.30;99.90
23669;DHT22;12011;47.422;15.018;2024-01-06T15:59:01;2.30;99.90
23669;DHT22;12011;47.422;15.018;2024-01-06T16:01:31;2.30;99.90
23669;DHT22;12011;47.422;15.018;2024-01-06T16:04:00;2.20;99.90
23669;DHT22;12011;47.422;15.018;2024-01-06T16:06:32;2.10;99.90
23669;DHT22;12011;47.422;15.018;2024-01-06T16:09:02;2.10;99.90